createdAt,value
2023-05-23T00:00:14.163Z,23.84
2023-05-23T00:03:08.177Z,23.84
2023-05-23T00:05:35.227Z,23.84
2023-05-23T00:08:02.202Z,23.84
2023-05-23T00:10:28.897Z,23.83
2023-05-23T00:12:55.538Z,23.81
2023-05-23T00:15:22.510Z,23.83
2023-05-23T00:17:49.177Z,23.84
2023-05-23T00:20:16.876Z,23.82
2023-05-23T00:22:43.465Z,23.82
2023-05-23T00:25:10.347Z,23.75
2023-05-23T00:27:37.055Z,23.83
2023-05-23T00:30:04.778Z,23.82
2023-05-23T00:32:31.451Z,23.81
2023-05-23T00:34:58.131Z,23.81
2023-05-23T00:37:24.886Z,23.81
2023-05-23T00:39:51.546Z,23.81
2023-05-23T00:42:18.157Z,23.81
2023-05-23T00:44:44.794Z,23.80
2023-05-23T00:47:13.876Z,23.80
2023-05-23T00:49:40.724Z,23.81
2023-05-23T00:52:07.525Z,23.77
2023-05-23T00:54:34.709Z,23.80
2023-05-23T00:57:01.357Z,23.80
2023-05-23T00:59:28.170Z,23.79
2023-05-23T01:01:56.361Z,23.79
2023-05-23T01:04:26.721Z,23.79
2023-05-23T01:06:55.380Z,23.80
2023-05-23T01:09:23.765Z,23.81
2023-05-23T01:12:09.217Z,23.79
2023-05-23T01:14:38.949Z,23.80
2023-05-23T01:17:12.533Z,23.79
2023-05-23T01:19:56.745Z,23.83
2023-05-23T01:22:48.619Z,23.82
2023-05-23T01:25:31.453Z,23.81
2023-05-23T01:28:01.302Z,23.80
2023-05-23T01:30:32.204Z,23.80
2023-05-23T01:32:59.362Z,23.78
2023-05-23T01:35:27.358Z,23.74
2023-05-23T01:37:55.457Z,23.78
2023-05-23T01:40:23.430Z,23.78
2023-05-23T01:42:50.505Z,23.78
2023-05-23T01:45:18.312Z,23.73
2023-05-23T01:47:46.559Z,23.77
2023-05-23T01:50:13.276Z,23.79
2023-05-23T01:52:40.062Z,23.78
2023-05-23T01:55:10.011Z,23.77
2023-05-23T01:57:38.237Z,23.73
2023-05-23T02:00:06.829Z,23.75
2023-05-23T02:02:39.914Z,23.76
2023-05-23T02:05:07.035Z,23.79
2023-05-23T02:07:33.668Z,23.79
2023-05-23T02:10:00.462Z,23.78
2023-05-23T02:12:28.534Z,23.77
2023-05-23T02:14:56.501Z,23.77
2023-05-23T02:17:24.319Z,23.77
2023-05-23T02:19:51.120Z,23.77
2023-05-23T02:22:18.078Z,23.76
2023-05-23T02:24:44.757Z,23.76
2023-05-23T02:27:13.149Z,23.76
2023-05-23T02:29:39.838Z,23.75
2023-05-23T02:32:06.732Z,23.75
2023-05-23T02:34:33.431Z,23.74
2023-05-23T02:37:00.170Z,23.75
2023-05-23T02:39:27.522Z,23.75
2023-05-23T02:41:55.044Z,23.76
2023-05-23T02:44:21.819Z,23.69
2023-05-23T02:46:48.471Z,23.75
2023-05-23T02:49:15.176Z,23.75
2023-05-23T02:51:41.828Z,23.74
2023-05-23T02:54:08.576Z,23.74
2023-05-23T02:56:38.498Z,23.74
2023-05-23T02:59:05.822Z,23.70
2023-05-23T03:01:32.466Z,23.73
2023-05-23T03:03:59.219Z,23.73
2023-05-23T03:06:27.578Z,23.73
2023-05-23T03:08:54.320Z,23.74
2023-05-23T03:11:22.631Z,23.74
2023-05-23T03:13:49.509Z,23.74
2023-05-23T03:16:16.177Z,23.74
2023-05-23T03:18:42.892Z,23.74
2023-05-23T03:21:09.789Z,23.73
2023-05-23T03:23:36.799Z,23.74
2023-05-23T03:26:03.970Z,23.73
2023-05-23T03:28:33.722Z,23.70
2023-05-23T03:31:00.343Z,23.72
2023-05-23T03:33:26.934Z,23.71
2023-05-23T03:35:53.621Z,23.70
2023-05-23T03:38:20.722Z,23.70
2023-05-23T03:40:47.327Z,23.70
2023-05-23T03:43:15.286Z,23.71
2023-05-23T03:45:43.372Z,23.70
2023-05-23T03:48:13.572Z,23.67
2023-05-23T03:50:41.830Z,23.69
2023-05-23T03:53:08.769Z,23.65
2023-05-23T03:55:35.984Z,23.69
2023-05-23T03:58:02.755Z,23.69
2023-05-23T04:00:29.400Z,23.69
2023-05-23T04:02:58.791Z,23.69
2023-05-23T04:05:25.758Z,23.68
2023-05-23T04:07:53.830Z,23.69
2023-05-23T04:10:20.614Z,23.66
2023-05-23T04:12:47.941Z,23.66
2023-05-23T04:15:17.867Z,23.68
2023-05-23T04:17:52.772Z,23.61
2023-05-23T04:20:19.720Z,23.68
2023-05-23T04:22:46.341Z,23.68
2023-05-23T04:25:13.961Z,23.72
2023-05-23T04:27:48.252Z,23.75
2023-05-23T04:30:17.832Z,23.77
2023-05-23T04:32:44.787Z,23.76
2023-05-23T04:35:14.318Z,23.79
2023-05-23T04:37:42.547Z,23.78
2023-05-23T04:40:09.815Z,23.78
2023-05-23T04:42:56.870Z,23.76
2023-05-23T04:45:34.532Z,23.76
2023-05-23T04:48:21.817Z,23.76
2023-05-23T04:50:51.169Z,23.75
2023-05-23T04:53:18.028Z,23.74
2023-05-23T04:55:45.785Z,23.75
2023-05-23T04:58:16.233Z,23.74
2023-05-23T05:00:43.495Z,23.74
2023-05-23T05:03:12.032Z,23.71
2023-05-23T05:05:42.661Z,23.76
2023-05-23T05:08:09.251Z,23.75
2023-05-23T05:10:36.080Z,23.73
2023-05-23T05:13:02.764Z,23.75
2023-05-23T05:15:37.539Z,23.71
2023-05-23T05:18:04.427Z,23.72
2023-05-23T05:20:31.076Z,23.73
2023-05-23T05:22:58.305Z,23.70
2023-05-23T05:25:25.152Z,23.74
2023-05-23T05:27:52.595Z,23.78
2023-05-23T05:30:20.727Z,23.81
2023-05-23T05:32:52.174Z,23.83
2023-05-23T05:35:18.855Z,23.85
2023-05-23T05:37:46.653Z,23.85
2023-05-23T05:40:13.554Z,23.86
2023-05-23T05:42:42.694Z,23.86
2023-05-23T05:45:11.511Z,23.87
2023-05-23T05:47:39.505Z,23.85
2023-05-23T05:50:08.413Z,23.84
2023-05-23T05:52:39.769Z,23.84
2023-05-23T05:55:07.915Z,23.82
2023-05-23T05:57:35.460Z,23.82
2023-05-23T06:00:08.846Z,23.80
2023-05-23T06:02:51.345Z,23.79
2023-05-23T06:05:28.924Z,23.78
2023-05-23T06:07:55.795Z,23.76
2023-05-23T06:10:22.396Z,23.76
2023-05-23T06:12:50.396Z,23.77
2023-05-23T06:15:17.703Z,23.72
2023-05-23T06:17:45.340Z,23.76
2023-05-23T06:20:12.434Z,23.72
2023-05-23T06:22:42.670Z,23.76
2023-05-23T06:25:09.521Z,23.74
2023-05-23T06:27:36.909Z,23.73
2023-05-23T06:30:07.019Z,23.72
2023-05-23T06:32:33.828Z,23.71
2023-05-23T06:35:00.605Z,23.70
2023-05-23T06:37:27.272Z,23.64
2023-05-23T06:39:53.914Z,23.69
2023-05-23T06:42:20.571Z,23.69
2023-05-23T06:45:04.834Z,23.69
2023-05-23T06:47:32.505Z,23.68
2023-05-23T06:49:59.160Z,23.68
2023-05-23T06:52:25.771Z,23.67
2023-05-23T06:54:52.524Z,23.66
2023-05-23T06:57:20.304Z,23.66
2023-05-23T06:59:47.319Z,23.67
2023-05-23T07:02:15.023Z,23.69
2023-05-23T07:04:41.643Z,23.65
2023-05-23T07:07:15.792Z,23.70
2023-05-23T07:09:43.746Z,23.71
2023-05-23T07:12:16.651Z,23.72
2023-05-23T07:14:46.236Z,23.72
2023-05-23T07:17:13.851Z,23.71
2023-05-23T07:19:41.105Z,23.74
2023-05-23T07:22:07.702Z,23.73
2023-05-23T07:24:38.009Z,23.72
2023-05-23T07:27:06.546Z,23.75
2023-05-23T07:29:34.361Z,23.73
2023-05-23T07:32:01.284Z,23.75
2023-05-23T07:34:29.212Z,23.75
2023-05-23T07:36:59.335Z,23.75
2023-05-23T07:39:30.990Z,23.76
2023-05-23T07:41:59.936Z,23.76
2023-05-23T07:44:26.833Z,23.76
2023-05-23T07:46:54.190Z,23.76
2023-05-23T07:49:21.561Z,23.76
2023-05-23T07:51:48.289Z,23.77
2023-05-23T07:54:16.474Z,23.78
2023-05-23T07:56:45.153Z,23.77
2023-05-23T07:59:13.247Z,23.78
2023-05-23T08:01:40.672Z,23.79
2023-05-23T08:04:07.566Z,23.79
2023-05-23T08:06:45.797Z,23.79
2023-05-23T08:09:20.044Z,23.80
2023-05-23T08:11:51.094Z,23.80
2023-05-23T08:14:18.375Z,23.81
2023-05-23T08:16:53.605Z,23.76
2023-05-23T08:19:24.133Z,23.81
2023-05-23T08:21:53.131Z,23.81
2023-05-23T08:24:22.780Z,23.82
2023-05-23T08:26:50.442Z,23.82
2023-05-23T08:29:17.493Z,23.82
2023-05-23T08:31:45.354Z,23.83
2023-05-23T08:34:12.508Z,23.84
2023-05-23T08:36:40.376Z,23.84
2023-05-23T08:39:11.773Z,23.84
2023-05-23T08:41:47.416Z,23.85
2023-05-23T08:44:14.323Z,23.85
2023-05-23T08:46:49.864Z,23.85
2023-05-23T08:49:40.987Z,23.86
2023-05-23T08:52:10.297Z,23.88
2023-05-23T08:54:41.051Z,23.87
2023-05-23T08:57:07.887Z,23.87
2023-05-23T08:59:41.131Z,23.88
2023-05-23T09:02:12.443Z,23.87
2023-05-23T09:04:39.304Z,23.88
2023-05-23T09:07:12.891Z,23.90
2023-05-23T09:09:39.616Z,23.88
2023-05-23T09:12:10.233Z,23.89
2023-05-23T09:14:37.339Z,23.90
2023-05-23T09:17:07.373Z,23.91
2023-05-23T09:19:34.202Z,23.91
2023-05-23T09:22:14.194Z,23.92
2023-05-23T09:24:57.416Z,23.92
2023-05-23T09:27:24.593Z,23.93
2023-05-23T09:29:51.676Z,23.93
2023-05-23T09:32:21.247Z,23.89
2023-05-23T09:35:00.943Z,23.93
2023-05-23T09:37:31.387Z,23.94
2023-05-23T09:40:03.982Z,23.94
2023-05-23T09:42:34.259Z,23.94
2023-05-23T09:45:04.096Z,23.95
2023-05-23T09:47:31.831Z,23.95
2023-05-23T09:49:58.861Z,23.94
2023-05-23T09:52:26.315Z,23.96
2023-05-23T09:54:54.254Z,23.95
2023-05-23T09:57:23.138Z,23.97
2023-05-23T09:59:54.756Z,23.96
2023-05-23T10:02:59.507Z,23.96
2023-05-23T10:05:43.791Z,23.96
2023-05-23T10:08:19.227Z,23.98
2023-05-23T10:10:58.035Z,23.98
2023-05-23T10:13:26.834Z,23.99
2023-05-23T10:16:03.381Z,23.94
2023-05-23T10:18:30.556Z,23.99
2023-05-23T10:21:00.838Z,23.97
2023-05-23T10:23:28.769Z,23.99
2023-05-23T10:25:55.622Z,24.00
2023-05-23T10:28:22.346Z,24.00
2023-05-23T10:30:49.131Z,24.00
2023-05-23T10:33:17.017Z,24.00
2023-05-23T10:36:08.591Z,23.95
2023-05-23T10:38:46.792Z,24.01
2023-05-23T10:41:27.541Z,24.01
2023-05-23T10:44:11.696Z,24.01
2023-05-23T10:47:05.036Z,24.03
2023-05-23T10:49:41.846Z,23.99
2023-05-23T10:52:10.392Z,24.03
2023-05-23T10:54:43.110Z,24.03
2023-05-23T10:57:12.108Z,24.03
2023-05-23T10:59:39.269Z,24.03
2023-05-23T11:02:13.451Z,24.03
2023-05-23T11:04:40.617Z,24.03
2023-05-23T11:07:30.922Z,24.04
2023-05-23T11:10:16.710Z,24.05
2023-05-23T11:12:44.805Z,24.06
2023-05-23T11:15:17.199Z,24.05
2023-05-23T11:17:54.679Z,24.07
2023-05-23T11:20:24.420Z,24.07
2023-05-23T11:23:07.501Z,24.07
2023-05-23T11:25:43.021Z,24.08
2023-05-23T11:28:10.918Z,24.08
2023-05-23T11:30:38.272Z,24.08
2023-05-23T11:33:09.184Z,24.08
2023-05-23T11:35:36.452Z,24.08
2023-05-23T11:38:04.877Z,24.07
2023-05-23T11:40:36.785Z,24.04
2023-05-23T11:43:05.923Z,24.05
2023-05-23T11:45:33.917Z,24.05
2023-05-23T11:48:11.726Z,24.09
2023-05-23T11:50:52.982Z,24.11
2023-05-23T11:53:22.179Z,24.09
2023-05-23T11:55:53.682Z,24.09
2023-05-23T11:58:26.724Z,24.10
2023-05-23T12:00:59.086Z,24.11
2023-05-23T12:03:25.889Z,24.12
2023-05-23T12:05:52.697Z,24.12
2023-05-23T12:08:19.463Z,24.12
2023-05-23T12:11:04.152Z,24.12
2023-05-23T12:13:30.882Z,24.11
2023-05-23T12:15:59.726Z,24.12
2023-05-23T12:18:31.546Z,24.13
2023-05-23T12:21:03.128Z,24.14
2023-05-23T12:23:31.337Z,24.13
2023-05-23T12:25:59.900Z,24.14
2023-05-23T12:28:45.714Z,24.14
2023-05-23T12:31:19.546Z,24.15
2023-05-23T12:33:51.130Z,24.15
2023-05-23T12:36:26.202Z,24.14
2023-05-23T12:38:53.459Z,24.15
2023-05-23T12:41:20.841Z,24.16
2023-05-23T12:43:52.411Z,24.14
2023-05-23T12:46:20.462Z,24.17
2023-05-23T12:48:47.525Z,24.16
2023-05-23T12:51:15.060Z,24.15
2023-05-23T12:53:41.720Z,24.16
2023-05-23T12:56:08.541Z,24.14
2023-05-23T12:58:35.305Z,24.13
2023-05-23T13:01:02.655Z,24.17
2023-05-23T13:03:33.233Z,24.17
2023-05-23T13:06:00.283Z,24.18
2023-05-23T13:08:29.780Z,24.18
2023-05-23T13:10:57.128Z,24.17
2023-05-23T13:13:24.094Z,24.18
2023-05-23T13:15:51.637Z,24.18
2023-05-23T13:18:18.837Z,24.18
2023-05-23T13:20:46.494Z,24.17
2023-05-23T13:23:13.474Z,24.13
2023-05-23T13:25:40.321Z,24.17
2023-05-23T13:28:07.085Z,24.17
2023-05-23T13:30:34.395Z,24.15
2023-05-23T13:33:01.158Z,24.19
2023-05-23T13:35:27.854Z,24.23
2023-05-23T13:37:54.491Z,24.22
2023-05-23T13:40:21.963Z,24.32
2023-05-23T13:42:51.065Z,24.33
2023-05-23T13:45:18.908Z,24.36
2023-05-23T13:47:46.472Z,24.38
2023-05-23T13:50:13.198Z,24.37
2023-05-23T13:52:42.939Z,24.43
2023-05-23T13:55:11.004Z,24.44
2023-05-23T13:57:37.739Z,24.46
2023-05-23T14:00:05.461Z,24.47
2023-05-23T14:02:34.548Z,24.48
2023-05-23T14:05:01.503Z,24.48
2023-05-23T14:07:28.234Z,24.44
2023-05-23T14:09:54.873Z,24.49
2023-05-23T14:12:21.501Z,24.50
2023-05-23T14:14:48.313Z,24.50
2023-05-23T14:17:18.186Z,24.47
2023-05-23T14:19:45.753Z,24.51
2023-05-23T14:22:12.530Z,24.50
2023-05-23T14:24:39.192Z,24.44
2023-05-23T14:27:08.067Z,24.49
2023-05-23T14:29:36.285Z,24.44
2023-05-23T14:32:04.137Z,24.49
2023-05-23T14:34:30.911Z,24.49
2023-05-23T14:36:57.573Z,24.50
2023-05-23T14:39:25.581Z,24.51
2023-05-23T14:41:52.475Z,24.50
2023-05-23T14:44:19.490Z,24.50
2023-05-23T14:46:50.041Z,24.50
2023-05-23T14:49:17.550Z,24.50
2023-05-23T14:51:50.223Z,24.52
2023-05-23T14:54:17.465Z,24.52
2023-05-23T14:56:44.075Z,24.51
2023-05-23T14:59:11.065Z,24.50
2023-05-23T15:01:40.080Z,24.49
2023-05-23T15:04:09.123Z,24.51
2023-05-23T15:06:37.050Z,24.51
2023-05-23T15:09:04.231Z,24.52
2023-05-23T15:11:32.245Z,24.51
2023-05-23T15:13:59.604Z,24.51
2023-05-23T15:16:26.583Z,24.52
2023-05-23T15:18:53.458Z,24.51
2023-05-23T15:21:20.284Z,24.52
2023-05-23T15:23:46.956Z,24.52
2023-05-23T15:26:13.652Z,24.53
2023-05-23T15:28:40.300Z,24.51
2023-05-23T15:31:07.031Z,24.52
2023-05-23T15:33:33.715Z,24.52
2023-05-23T15:36:01.198Z,24.51
2023-05-23T15:38:27.912Z,24.51
2023-05-23T15:40:56.394Z,24.51
2023-05-23T15:43:24.864Z,24.51
2023-05-23T15:45:52.031Z,24.51
2023-05-23T15:48:18.840Z,24.51
2023-05-23T15:50:45.992Z,24.51
2023-05-23T15:53:12.756Z,24.49
2023-05-23T15:55:42.059Z,24.45
2023-05-23T15:58:10.104Z,24.44
2023-05-23T16:00:36.717Z,24.42
2023-05-23T16:03:03.470Z,24.33
2023-05-23T16:05:30.318Z,24.26
2023-05-23T16:07:57.091Z,24.18
2023-05-23T16:10:24.661Z,24.14
2023-05-23T16:12:51.579Z,24.12
2023-05-23T16:15:18.447Z,24.07
2023-05-23T16:17:45.378Z,24.05
2023-05-23T16:20:12.371Z,23.97
2023-05-23T16:22:39.154Z,23.92
2023-05-23T16:25:07.830Z,23.84
2023-05-23T16:27:34.579Z,23.88
2023-05-23T16:30:01.569Z,23.89
2023-05-23T16:32:28.902Z,23.89
2023-05-23T16:34:57.811Z,23.93
2023-05-23T16:37:24.522Z,23.96
2023-05-23T16:39:51.198Z,23.98
2023-05-23T16:42:17.931Z,24.01
2023-05-23T16:44:45.170Z,24.01
2023-05-23T16:47:11.940Z,24.03
2023-05-23T16:49:38.589Z,24.03
2023-05-23T16:52:05.458Z,24.01
2023-05-23T16:54:32.089Z,24.06
2023-05-23T16:57:01.567Z,24.05
2023-05-23T16:59:29.569Z,24.05
2023-05-23T17:01:56.413Z,24.17
2023-05-23T17:04:23.112Z,24.24
2023-05-23T17:06:50.125Z,24.29
2023-05-23T17:09:18.067Z,24.35
2023-05-23T17:11:44.923Z,24.38
2023-05-23T17:14:11.859Z,24.44
2023-05-23T17:16:38.768Z,24.49
2023-05-23T17:19:05.650Z,24.51
2023-05-23T17:21:32.873Z,24.54
2023-05-23T17:23:59.624Z,24.57
2023-05-23T17:26:27.224Z,24.59
2023-05-23T17:28:53.875Z,24.62
2023-05-23T17:31:20.971Z,24.63
2023-05-23T17:33:47.683Z,24.64
2023-05-23T17:36:14.343Z,24.66
2023-05-23T17:38:41.603Z,24.67
2023-05-23T17:41:08.288Z,24.68
2023-05-23T17:43:34.905Z,24.70
2023-05-23T17:46:01.574Z,24.71
2023-05-23T17:48:45.244Z,24.72
2023-05-23T17:51:13.545Z,24.73
2023-05-23T17:53:41.554Z,24.75
2023-05-23T17:56:09.239Z,24.78
2023-05-23T17:58:37.354Z,24.78
2023-05-23T18:01:04.726Z,24.80
2023-05-23T18:03:31.425Z,24.81
2023-05-23T18:05:58.198Z,24.82
2023-05-23T18:08:25.964Z,24.82
2023-05-23T18:10:52.640Z,24.86
2023-05-23T18:13:19.234Z,24.86
2023-05-23T18:15:45.959Z,24.83
2023-05-23T18:18:12.836Z,24.88
2023-05-23T18:20:39.868Z,24.88
2023-05-23T18:23:07.432Z,24.89
2023-05-23T18:25:34.367Z,24.92
2023-05-23T18:28:01.770Z,24.87
2023-05-23T18:30:29.083Z,24.93
2023-05-23T18:32:56.076Z,24.94
2023-05-23T18:35:22.977Z,24.95
2023-05-23T18:37:50.835Z,24.95
2023-05-23T18:40:17.518Z,24.90
2023-05-23T18:42:44.362Z,24.97
2023-05-23T18:45:11.060Z,24.98
2023-05-23T18:47:37.789Z,24.98
2023-05-23T18:50:04.704Z,24.99
2023-05-23T18:52:33.494Z,24.99
2023-05-23T18:55:00.199Z,24.98
2023-05-23T18:57:26.885Z,24.98
2023-05-23T18:59:54.387Z,24.99
2023-05-23T19:02:21.587Z,24.99
2023-05-23T19:04:48.318Z,24.99
2023-05-23T19:07:15.295Z,24.99
2023-05-23T19:09:41.974Z,25.00
2023-05-23T19:12:08.689Z,25.02
2023-05-23T19:14:35.453Z,25.01
2023-05-23T19:17:05.645Z,25.01
2023-05-23T19:19:36.586Z,25.01
2023-05-23T19:22:03.440Z,25.02
2023-05-23T19:24:30.133Z,25.02
2023-05-23T19:26:57.096Z,25.04
2023-05-23T19:29:23.725Z,25.04
2023-05-23T19:31:50.453Z,25.04
2023-05-23T19:34:17.174Z,25.06
2023-05-23T19:36:44.118Z,25.07
2023-05-23T19:39:12.450Z,25.07
2023-05-23T19:41:40.729Z,25.05
2023-05-23T19:44:07.658Z,25.08
2023-05-23T19:49:00.972Z,25.05
2023-05-23T19:51:27.633Z,25.08
2023-05-23T19:53:54.778Z,25.09
2023-05-23T19:56:25.807Z,25.08
2023-05-23T19:58:52.425Z,25.07
2023-05-23T20:01:19.118Z,25.09
2023-05-23T20:03:45.922Z,25.08
2023-05-23T20:06:12.625Z,25.09
2023-05-23T20:08:39.256Z,25.09
2023-05-23T20:11:05.939Z,24.93
2023-05-23T20:13:32.605Z,25.10
2023-05-23T20:15:59.330Z,25.10
2023-05-23T20:18:26.104Z,25.11
2023-05-23T20:20:53.162Z,25.11
2023-05-23T20:23:19.844Z,25.12
2023-05-23T20:25:46.504Z,25.13
2023-05-23T20:28:13.148Z,25.12
2023-05-23T20:30:39.778Z,25.11
2023-05-23T20:33:06.550Z,25.11
2023-05-23T20:35:33.210Z,25.12
2023-05-23T20:37:59.957Z,25.12
2023-05-23T20:40:29.755Z,25.13
2023-05-23T20:43:00.585Z,25.10
2023-05-23T20:45:27.680Z,25.12
2023-05-23T20:47:55.303Z,25.14
2023-05-23T20:50:22.584Z,25.15
2023-05-23T20:52:49.330Z,25.15
2023-05-23T20:55:16.051Z,25.10
2023-05-23T20:57:43.099Z,25.16
2023-05-23T21:00:11.700Z,25.10
2023-05-23T21:02:42.061Z,25.17
2023-05-23T21:05:10.125Z,25.17
2023-05-23T21:07:37.027Z,25.17
2023-05-23T21:10:04.076Z,25.08
2023-05-23T21:12:30.954Z,24.97
2023-05-23T21:14:58.225Z,24.88
2023-05-23T21:17:25.529Z,24.81
2023-05-23T21:19:52.328Z,24.76
2023-05-23T21:22:18.924Z,24.73
2023-05-23T21:24:46.103Z,24.70
2023-05-23T21:27:12.875Z,24.68
2023-05-23T21:29:39.739Z,24.65
2023-05-23T21:32:06.655Z,24.63
2023-05-23T21:34:33.439Z,24.62
2023-05-23T21:37:00.088Z,24.57
2023-05-23T21:39:36.082Z,24.58
2023-05-23T21:42:09.964Z,24.56
2023-05-23T21:44:37.877Z,24.56
2023-05-23T21:47:05.611Z,24.52
2023-05-23T21:49:33.822Z,24.51
2023-05-23T21:52:04.290Z,24.49
2023-05-23T21:54:31.110Z,24.48
2023-05-23T21:56:57.769Z,24.45
2023-05-23T21:59:24.503Z,24.42
2023-05-23T22:01:51.587Z,24.44
2023-05-23T22:04:21.236Z,24.40
2023-05-23T22:06:47.911Z,24.41
2023-05-23T22:09:15.281Z,24.40
2023-05-23T22:11:42.238Z,24.39
2023-05-23T22:14:08.919Z,24.37
2023-05-23T22:16:41.283Z,24.38
2023-05-23T22:19:10.326Z,24.34
2023-05-23T22:21:37.449Z,24.37
2023-05-23T22:24:04.763Z,24.36
2023-05-23T22:26:32.221Z,24.35
2023-05-23T22:28:59.040Z,24.34
2023-05-23T22:31:26.514Z,24.34
2023-05-23T22:33:53.447Z,24.33
2023-05-23T22:36:21.881Z,24.32
2023-05-23T22:38:48.635Z,24.32
2023-05-23T22:41:15.456Z,24.25
2023-05-23T22:43:42.210Z,24.30
2023-05-23T22:46:09.000Z,24.30
2023-05-23T22:48:35.754Z,24.26
2023-05-23T22:51:02.944Z,24.29
2023-05-23T22:53:29.915Z,24.24
2023-05-23T22:55:56.688Z,24.28
2023-05-23T22:58:23.408Z,24.28
2023-05-23T23:00:50.223Z,24.27
2023-05-23T23:03:17.136Z,24.24
2023-05-23T23:05:44.342Z,24.26
2023-05-23T23:08:12.012Z,24.20
2023-05-23T23:10:39.970Z,24.22
2023-05-23T23:13:07.015Z,24.19
2023-05-23T23:15:33.884Z,24.23
2023-05-23T23:18:01.129Z,24.24
2023-05-23T23:20:28.040Z,24.23
2023-05-23T23:22:54.718Z,24.22
2023-05-23T23:25:21.945Z,24.22
2023-05-23T23:27:48.727Z,24.21
2023-05-23T23:30:15.550Z,24.18
2023-05-23T23:32:42.311Z,24.21
2023-05-23T23:35:09.085Z,24.20
2023-05-23T23:37:35.909Z,24.20
2023-05-23T23:40:02.547Z,24.20
2023-05-23T23:42:29.182Z,24.21
2023-05-23T23:44:56.382Z,24.20
2023-05-23T23:47:23.143Z,24.20
2023-05-23T23:49:49.730Z,24.14
2023-05-23T23:52:16.441Z,24.18
2023-05-23T23:54:43.248Z,24.17
2023-05-23T23:57:13.596Z,24.17
2023-05-23T23:59:41.460Z,24.17
